Estación Meteorológica Peña el Pijo (Robertgarden) [ 11/17/17 23:52:16 CET ]

Fecha Hora Presion(HPa) Temp (°C) Humedad % Rocio (°C) Viento ( m/s) Direccion Lluvia 1Hora(mm) Lluvia 24H(mm) LLuvia Total(mm)
2017-Aug-12 01:01:40 1015.000 14.9 69 9.3         1437.96
2017-Aug-12 02:01:41 1014.800 13.6 73 8.8         1437.96
2017-Aug-12 03:01:10 1014.800 12.6 75 8.3         1437.96
2017-Aug-12 04:01:11 1015.000 11.9 76 7.8         1437.96
2017-Aug-12 05:01:13 1014.600 11.0 78 7.3         1437.96
2017-Aug-12 06:01:13 1014.600 10.4 80 7.1         1437.96
2017-Aug-12 07:01:52 1014.600 10.2 82 7.2         1437.96
2017-Aug-12 08:01:40 1014.800 10.4 83 7.6         1437.96
2017-Aug-12 09:01:53 1015.100 15.5 80 12.1         1437.96
2017-Aug-12 10:01:50 1015.200 21.2 58 12.6         1437.96
2017-Aug-12 11:01:44 1015.100 24.9 43 11.4         1437.96
2017-Aug-12 12:01:59 1014.800 28.6 35 11.5         1437.96
2017-Aug-12 13:01:51 1014.500 31.9 29 11.6         1437.96
2017-Aug-12 14:01:45 1014.200 31.7 27 10.2         1437.96
2017-Aug-12 15:01:53 1013.900 33.2 25 10.3         1437.96
2017-Aug-12 16:01:52 1013.200 32.6 25 9.8         1437.96
2017-Aug-12 17:01:42 1012.900 30.6 28 9.9         1437.96
2017-Aug-12 18:01:48 1012.900 29.9 29 9.9         1437.96
2017-Aug-12 19:01:43 1012.900 28.1 34 10.6 1.0 SSE     1437.96
2017-Aug-12 20:01:36 1013.000 25.4 40 10.9         1437.96
2017-Aug-12 21:01:35 1013.500 22.8 45 10.2         1437.96
2017-Aug-12 22:01:47 1013.800 20.9 50 10.1         1437.96
2017-Aug-12 23:01:47 1014.300 19.8 53 9.9         1437.96

Temperatura Máxima:33°    Temperatura Mínima:10°
Presión Máxima:1015.200 Hpa    Presión Mínima:1012.900 Hpa


Volver